createdAt,value
2023-02-13T00:00:13.918Z,1041.25
2023-02-13T00:01:13.866Z,1041.24
2023-02-13T00:02:13.929Z,1041.19
2023-02-13T00:03:13.940Z,1041.18
2023-02-13T00:04:13.867Z,1041.15
2023-02-13T00:05:13.871Z,1041.14
2023-02-13T00:06:13.883Z,1041.15
2023-02-13T00:07:13.865Z,1041.1
2023-02-13T00:08:13.882Z,1041.1
2023-02-13T00:09:13.881Z,1041.19
2023-02-13T00:10:13.884Z,1041.18
2023-02-13T00:11:13.866Z,1041.18
2023-02-13T00:12:13.869Z,1041.18
2023-02-13T00:13:13.891Z,1041.18
2023-02-13T00:14:13.867Z,1041.18
2023-02-13T00:15:13.874Z,1041.18
2023-02-13T00:16:13.918Z,1041.18
2023-02-13T00:17:13.866Z,1041.16
2023-02-13T00:18:13.890Z,1041.13
2023-02-13T00:19:13.873Z,1041.14
2023-02-13T00:20:13.868Z,1041.15
2023-02-13T00:21:13.894Z,1041.09
2023-02-13T00:22:13.873Z,1041.16
2023-02-13T00:23:13.889Z,1041.09
2023-02-13T00:24:13.873Z,1041.07
2023-02-13T00:25:13.872Z,1041.05
2023-02-13T00:26:13.877Z,1041.11
2023-02-13T00:27:13.877Z,1041.09
2023-02-13T00:28:13.908Z,1041.13
2023-02-13T00:29:13.869Z,1041.08
2023-02-13T00:30:13.869Z,1041.09
2023-02-13T00:31:13.973Z,1041.1
2023-02-13T00:32:14.055Z,1041.06
2023-02-13T00:33:14.029Z,1041.06
2023-02-13T00:34:13.876Z,1041.08
2023-02-13T00:35:13.866Z,1041.08
2023-02-13T00:36:13.883Z,1041.09
2023-02-13T00:37:13.864Z,1041.09
2023-02-13T00:38:13.881Z,1041.11
2023-02-13T00:39:13.869Z,1041.12
2023-02-13T00:40:13.863Z,1041.12
2023-02-13T00:41:13.869Z,1041.1
2023-02-13T00:42:13.878Z,1041.11
2023-02-13T00:43:13.873Z,1041.11
2023-02-13T00:44:13.860Z,1041.13
2023-02-13T00:45:13.869Z,1041.13
2023-02-13T00:46:13.979Z,1041.13
2023-02-13T00:47:13.870Z,1041.16
2023-02-13T00:48:13.886Z,1041.16
2023-02-13T00:49:13.868Z,1041.14
2023-02-13T00:50:13.860Z,1041.14
2023-02-13T00:51:13.884Z,1041.14
2023-02-13T00:52:13.881Z,1041.14
2023-02-13T00:53:13.883Z,1041.15
2023-02-13T00:54:13.864Z,1041.14
2023-02-13T00:55:13.869Z,1041.16
2023-02-13T00:56:13.869Z,1041.1
2023-02-13T00:57:13.869Z,1041.1
2023-02-13T00:58:13.906Z,1041.12
2023-02-13T00:59:13.865Z,1041.15
2023-02-13T01:00:13.865Z,1041.06
2023-02-13T01:01:13.910Z,1041.06
2023-02-13T01:02:13.866Z,1041.11
2023-02-13T01:03:13.923Z,1041.07
2023-02-13T01:04:13.866Z,1041.12
2023-02-13T01:05:13.869Z,1041.07
2023-02-13T01:06:13.881Z,1041.08
2023-02-13T01:07:15.726Z,1041.08
2023-02-13T01:08:13.898Z,1041.08
2023-02-13T01:09:13.883Z,1041.13
2023-02-13T01:10:13.880Z,1041.13
2023-02-13T01:11:13.870Z,1041.09
2023-02-13T01:12:13.868Z,1041.08
2023-02-13T01:13:13.878Z,1041.11
2023-02-13T01:14:13.868Z,1041.11
2023-02-13T01:15:13.872Z,1041.15
2023-02-13T01:16:13.905Z,1041.19
2023-02-13T01:17:13.870Z,1041.15
2023-02-13T01:18:13.879Z,1041.17
2023-02-13T01:19:13.886Z,1041.12
2023-02-13T01:20:13.868Z,1041.15
2023-02-13T01:21:13.892Z,1041.18
2023-02-13T01:22:13.874Z,1041.15
2023-02-13T01:23:13.879Z,1041.15
2023-02-13T01:24:13.865Z,1041.15
2023-02-13T01:25:13.878Z,1041.16
2023-02-13T01:26:13.866Z,1041.18
2023-02-13T01:27:13.870Z,1041.12
2023-02-13T01:28:13.888Z,1041.13
2023-02-13T01:29:13.871Z,1041.16
2023-02-13T01:30:13.877Z,1041.1
2023-02-13T01:31:13.974Z,1041.13
2023-02-13T01:32:14.003Z,1041.09
2023-02-13T01:33:13.891Z,1041.1
2023-02-13T01:34:13.865Z,1041.1
2023-02-13T01:35:13.915Z,1041.09
2023-02-13T01:36:13.885Z,1041.06
2023-02-13T01:37:13.864Z,1041.07
2023-02-13T01:38:13.885Z,1041.09
2023-02-13T01:39:13.879Z,1041.06
2023-02-13T01:40:13.865Z,1041
2023-02-13T01:41:13.862Z,1040.98
2023-02-13T01:42:13.867Z,1041.04
2023-02-13T01:43:13.886Z,1041
2023-02-13T01:44:13.868Z,1040.96
2023-02-13T01:45:13.863Z,1040.93
2023-02-13T01:46:13.883Z,1040.92
2023-02-13T01:47:13.872Z,1040.91
2023-02-13T01:48:13.890Z,1040.91
2023-02-13T01:49:13.881Z,1040.88
2023-02-13T01:50:13.864Z,1040.87
2023-02-13T01:51:13.878Z,1040.81
2023-02-13T01:52:13.868Z,1040.81
2023-02-13T01:53:13.882Z,1040.78
2023-02-13T01:54:13.862Z,1040.83
2023-02-13T01:55:13.870Z,1040.83
2023-02-13T01:56:13.863Z,1040.84
2023-02-13T01:57:13.859Z,1040.78
2023-02-13T01:58:13.899Z,1040.8
2023-02-13T01:59:13.874Z,1040.81
2023-02-13T02:00:13.870Z,1040.81
2023-02-13T02:01:13.862Z,1040.84
2023-02-13T02:02:14.049Z,1040.86
2023-02-13T02:03:13.877Z,1040.83
2023-02-13T02:04:13.866Z,1040.79
2023-02-13T02:05:13.873Z,1040.77
2023-02-13T02:06:13.879Z,1040.72
2023-02-13T02:07:13.871Z,1040.8
2023-02-13T02:08:13.882Z,1040.8
2023-02-13T02:09:13.861Z,1040.83
2023-02-13T02:10:13.867Z,1040.83
2023-02-13T02:11:13.861Z,1040.83
2023-02-13T02:12:13.869Z,1040.82
2023-02-13T02:13:13.878Z,1040.81
2023-02-13T02:14:13.875Z,1040.82
2023-02-13T02:15:13.871Z,1040.79
2023-02-13T02:16:13.966Z,1040.77
2023-02-13T02:17:13.895Z,1040.75
2023-02-13T02:18:13.885Z,1040.75
2023-02-13T02:19:13.862Z,1040.71
2023-02-13T02:20:13.875Z,1040.75
2023-02-13T02:21:13.886Z,1040.7
2023-02-13T02:22:13.869Z,1040.69
2023-02-13T02:23:13.879Z,1040.68
2023-02-13T02:24:13.863Z,1040.68
2023-02-13T02:25:13.869Z,1040.68
2023-02-13T02:26:13.880Z,1040.65
2023-02-13T02:27:13.880Z,1040.68
2023-02-13T02:28:13.938Z,1040.71
2023-02-13T02:29:13.874Z,1040.71
2023-02-13T02:30:13.893Z,1040.69
2023-02-13T02:31:13.961Z,1040.66
2023-02-13T02:32:13.872Z,1040.64
2023-02-13T02:33:13.935Z,1040.67
2023-02-13T02:34:13.892Z,1040.67
2023-02-13T02:35:13.878Z,1040.66
2023-02-13T02:36:13.893Z,1040.65
2023-02-13T02:37:13.894Z,1040.71
2023-02-13T02:38:13.893Z,1040.67
2023-02-13T02:39:13.886Z,1040.67
2023-02-13T02:40:13.885Z,1040.73
2023-02-13T02:41:13.875Z,1040.69
2023-02-13T02:42:13.876Z,1040.69
2023-02-13T02:43:13.896Z,1040.68
2023-02-13T02:44:13.882Z,1040.68
2023-02-13T02:45:13.873Z,1040.68
2023-02-13T02:46:13.940Z,1040.64
2023-02-13T02:47:13.884Z,1040.66
2023-02-13T02:48:13.886Z,1040.68
2023-02-13T02:49:13.873Z,1040.64
2023-02-13T02:50:13.875Z,1040.65
2023-02-13T02:51:13.885Z,1040.68
2023-02-13T02:52:13.874Z,1040.67
2023-02-13T02:53:13.911Z,1040.64
2023-02-13T02:54:13.888Z,1040.68
2023-02-13T02:55:13.867Z,1040.64
2023-02-13T02:56:13.886Z,1040.66
2023-02-13T02:57:13.873Z,1040.68
2023-02-13T02:58:13.892Z,1040.7
2023-02-13T02:59:13.881Z,1040.68
2023-02-13T03:00:13.872Z,1040.71
2023-02-13T03:01:13.908Z,1040.67
2023-02-13T03:02:13.864Z,1040.68
2023-02-13T03:03:13.885Z,1040.69
2023-02-13T03:04:13.940Z,1040.68
2023-02-13T03:05:13.864Z,1040.72
2023-02-13T03:06:13.894Z,1040.72
2023-02-13T03:07:13.868Z,1040.67
2023-02-13T03:08:13.881Z,1040.67
2023-02-13T03:09:13.867Z,1040.68
2023-02-13T03:10:13.873Z,1040.61
2023-02-13T03:11:13.864Z,1040.62
2023-02-13T03:12:13.880Z,1040.63
2023-02-13T03:13:13.890Z,1040.64
2023-02-13T03:14:13.870Z,1040.65
2023-02-13T03:15:13.868Z,1040.68
2023-02-13T03:16:13.876Z,1040.64
2023-02-13T03:17:13.876Z,1040.66
2023-02-13T03:18:13.879Z,1040.69
2023-02-13T03:19:13.868Z,1040.68
2023-02-13T03:20:13.869Z,1040.71
2023-02-13T03:21:13.881Z,1040.71
2023-02-13T03:22:13.866Z,1040.7
2023-02-13T03:23:13.902Z,1040.73
2023-02-13T03:24:13.869Z,1040.71
2023-02-13T03:25:13.868Z,1040.75
2023-02-13T03:26:13.870Z,1040.75
2023-02-13T03:27:13.868Z,1040.72
2023-02-13T03:28:13.967Z,1040.73
2023-02-13T03:29:13.864Z,1040.77
2023-02-13T03:30:13.866Z,1040.75
2023-02-13T03:31:13.913Z,1040.75
2023-02-13T03:32:13.870Z,1040.7
2023-02-13T03:33:13.893Z,1040.74
2023-02-13T03:34:13.870Z,1040.71
2023-02-13T03:35:13.866Z,1040.77
2023-02-13T03:36:13.900Z,1040.73
2023-02-13T03:37:13.873Z,1040.73
2023-02-13T03:38:13.883Z,1040.81
2023-02-13T03:39:13.875Z,1040.74
2023-02-13T03:40:13.890Z,1040.75
2023-02-13T03:41:13.867Z,1040.75
2023-02-13T03:42:13.892Z,1040.78
2023-02-13T03:43:13.894Z,1040.8
2023-02-13T03:44:13.877Z,1040.82
2023-02-13T03:45:13.871Z,1040.82
2023-02-13T03:46:13.940Z,1040.8
2023-02-13T03:47:13.871Z,1040.83
2023-02-13T03:48:13.882Z,1040.87
2023-02-13T03:49:13.870Z,1040.82
2023-02-13T03:50:13.876Z,1040.87
2023-02-13T03:51:13.884Z,1040.84
2023-02-13T03:52:13.894Z,1040.85
2023-02-13T03:53:13.894Z,1040.8
2023-02-13T03:54:13.873Z,1040.84
2023-02-13T03:55:13.873Z,1040.82
2023-02-13T03:56:13.864Z,1040.81
2023-02-13T03:57:13.870Z,1040.78
2023-02-13T03:58:13.883Z,1040.8
2023-02-13T03:59:13.867Z,1040.78
2023-02-13T04:00:13.876Z,1040.78
2023-02-13T04:01:13.886Z,1040.79
2023-02-13T04:02:13.922Z,1040.78
2023-02-13T04:03:13.885Z,1040.75
2023-02-13T04:04:13.863Z,1040.75
2023-02-13T04:05:14.750Z,1040.83
2023-02-13T04:06:13.884Z,1040.83
2023-02-13T04:07:13.867Z,1040.81
2023-02-13T04:08:13.877Z,1040.81
2023-02-13T04:09:13.873Z,1040.86
2023-02-13T04:10:13.869Z,1040.86
2023-02-13T04:11:13.863Z,1040.85
2023-02-13T04:12:13.883Z,1040.85
2023-02-13T04:13:13.887Z,1040.83
2023-02-13T04:14:13.864Z,1040.86
2023-02-13T04:15:13.883Z,1040.8
2023-02-13T04:16:13.867Z,1040.85
2023-02-13T04:17:13.871Z,1040.84
2023-02-13T04:18:13.880Z,1040.8
2023-02-13T04:19:13.869Z,1040.82
2023-02-13T04:20:13.871Z,1040.82
2023-02-13T04:21:13.883Z,1040.82
2023-02-13T04:22:13.866Z,1040.81
2023-02-13T04:23:13.889Z,1040.74
2023-02-13T04:24:13.867Z,1040.73
2023-02-13T04:25:13.868Z,1040.8
2023-02-13T04:26:13.866Z,1040.74
2023-02-13T04:27:13.863Z,1040.74
2023-02-13T04:28:14.019Z,1040.74
2023-02-13T04:29:13.864Z,1040.67
2023-02-13T04:30:13.868Z,1040.63
2023-02-13T04:31:14.149Z,1040.68
2023-02-13T04:32:13.870Z,1040.67
2023-02-13T04:33:14.025Z,1040.67
2023-02-13T04:34:13.873Z,1040.64
2023-02-13T04:35:13.866Z,1040.68
2023-02-13T04:36:13.885Z,1040.68
2023-02-13T04:37:13.870Z,1040.69
2023-02-13T04:38:13.885Z,1040.65
2023-02-13T04:39:13.876Z,1040.68
2023-02-13T04:40:13.868Z,1040.68
2023-02-13T04:41:13.868Z,1040.67
2023-02-13T04:42:13.868Z,1040.66
2023-02-13T04:43:13.901Z,1040.7
2023-02-13T04:44:13.869Z,1040.7
2023-02-13T04:45:13.881Z,1040.69
2023-02-13T04:46:13.943Z,1040.8
2023-02-13T04:47:13.878Z,1040.74
2023-02-13T04:48:13.885Z,1040.75
2023-02-13T04:49:13.877Z,1040.71
2023-02-13T04:50:13.885Z,1040.74
2023-02-13T04:51:13.910Z,1040.74
2023-02-13T04:52:13.873Z,1040.72
2023-02-13T04:53:13.886Z,1040.74
2023-02-13T04:54:13.864Z,1040.77
2023-02-13T04:55:13.868Z,1040.74
2023-02-13T04:56:13.872Z,1040.7
2023-02-13T04:57:13.871Z,1040.73
2023-02-13T04:58:13.886Z,1040.77
2023-02-13T04:59:13.871Z,1040.77
2023-02-13T05:00:13.883Z,1040.73
2023-02-13T05:01:13.895Z,1040.73
2023-02-13T05:02:13.871Z,1040.7
2023-02-13T05:03:13.893Z,1040.7
2023-02-13T05:04:13.891Z,1040.73
2023-02-13T05:05:13.874Z,1040.74
2023-02-13T05:06:13.886Z,1040.7
2023-02-13T05:07:13.871Z,1040.69
2023-02-13T05:08:13.881Z,1040.69
2023-02-13T05:09:13.873Z,1040.71
2023-02-13T05:10:13.871Z,1040.66
2023-02-13T05:11:13.870Z,1040.71
2023-02-13T05:12:13.876Z,1040.69
2023-02-13T05:13:13.893Z,1040.66
2023-02-13T05:14:13.866Z,1040.7
2023-02-13T05:15:13.873Z,1040.7
2023-02-13T05:16:13.971Z,1040.67
2023-02-13T05:17:13.868Z,1040.67
2023-02-13T05:18:13.882Z,1040.69
2023-02-13T05:19:13.872Z,1040.65
2023-02-13T05:20:13.870Z,1040.69
2023-02-13T05:21:13.885Z,1040.66
2023-02-13T05:22:13.867Z,1040.65
2023-02-13T05:23:13.888Z,1040.65
2023-02-13T05:24:13.875Z,1040.66
2023-02-13T05:25:13.876Z,1040.67
2023-02-13T05:26:13.867Z,1040.65
2023-02-13T05:27:13.869Z,1040.65
2023-02-13T05:28:13.932Z,1040.62
2023-02-13T05:29:13.879Z,1040.71
2023-02-13T05:30:13.872Z,1040.66
2023-02-13T05:31:14.005Z,1040.66
2023-02-13T05:32:13.934Z,1040.67
2023-02-13T05:33:13.894Z,1040.66
2023-02-13T05:34:13.874Z,1040.65
2023-02-13T05:35:13.867Z,1040.65
2023-02-13T05:36:13.889Z,1040.69
2023-02-13T05:37:13.873Z,1040.65
2023-02-13T05:38:13.886Z,1040.63
2023-02-13T05:39:13.874Z,1040.63
2023-02-13T05:40:13.871Z,1040.64
2023-02-13T05:41:13.868Z,1040.61
2023-02-13T05:42:13.872Z,1040.64
2023-02-13T05:43:13.898Z,1040.68
2023-02-13T05:44:13.881Z,1040.64
2023-02-13T05:45:13.879Z,1040.68
2023-02-13T05:46:13.918Z,1040.68
2023-02-13T05:47:13.874Z,1040.72
2023-02-13T05:48:13.887Z,1040.68
2023-02-13T05:49:13.891Z,1040.71
2023-02-13T05:50:13.908Z,1040.72
2023-02-13T05:51:13.883Z,1040.73
2023-02-13T05:52:13.878Z,1040.77
2023-02-13T05:53:13.887Z,1040.72
2023-02-13T05:54:13.874Z,1040.73
2023-02-13T05:55:13.878Z,1040.73
2023-02-13T05:56:13.869Z,1040.69
2023-02-13T05:57:13.866Z,1040.72
2023-02-13T05:58:13.888Z,1040.71
2023-02-13T05:59:13.873Z,1040.74
2023-02-13T06:00:13.873Z,1040.73
2023-02-13T06:01:13.891Z,1040.79
2023-02-13T06:02:13.865Z,1040.81
2023-02-13T06:03:13.884Z,1040.8
2023-02-13T06:04:13.984Z,1040.78
2023-02-13T06:05:13.884Z,1040.81
2023-02-13T06:06:13.884Z,1040.84
2023-02-13T06:07:13.869Z,1040.86
2023-02-13T06:08:13.892Z,1040.86
2023-02-13T06:09:13.869Z,1040.87
2023-02-13T06:10:13.886Z,1040.87
2023-02-13T06:11:13.877Z,1040.84
2023-02-13T06:12:13.867Z,1040.83
2023-02-13T06:13:13.884Z,1040.81
2023-02-13T06:14:13.871Z,1040.82
2023-02-13T06:15:13.875Z,1040.83
2023-02-13T06:16:13.947Z,1040.82
2023-02-13T06:17:13.876Z,1040.84
2023-02-13T06:18:13.879Z,1040.88
2023-02-13T06:19:13.865Z,1040.89
2023-02-13T06:20:13.883Z,1040.91
2023-02-13T06:21:13.884Z,1040.9
2023-02-13T06:22:13.868Z,1040.93
2023-02-13T06:23:13.887Z,1040.89
2023-02-13T06:24:13.866Z,1040.94
2023-02-13T06:25:13.863Z,1040.95
2023-02-13T06:26:13.868Z,1040.95
2023-02-13T06:27:13.863Z,1040.98
2023-02-13T06:28:13.935Z,1041
2023-02-13T06:29:13.864Z,1041
2023-02-13T06:30:13.884Z,1040.95
2023-02-13T06:31:14.004Z,1041.01
2023-02-13T06:32:13.866Z,1041.02
2023-02-13T06:33:13.884Z,1041.01
2023-02-13T06:34:13.864Z,1040.98
2023-02-13T06:35:13.874Z,1041.02
2023-02-13T06:36:13.889Z,1041.06
2023-02-13T06:37:13.863Z,1041.02
2023-02-13T06:38:13.887Z,1041.05
2023-02-13T06:39:13.878Z,1041.04
2023-02-13T06:40:13.876Z,1041.05
2023-02-13T06:41:13.871Z,1041.05
2023-02-13T06:42:13.870Z,1041.04
2023-02-13T06:43:13.889Z,1041.05
2023-02-13T06:44:13.873Z,1041.04
2023-02-13T06:45:13.885Z,1041.06
2023-02-13T06:46:13.939Z,1041.02
2023-02-13T06:47:13.869Z,1041.03
2023-02-13T06:48:13.885Z,1041.04
2023-02-13T06:49:13.863Z,1041.06
2023-02-13T06:50:13.880Z,1041.04
2023-02-13T06:51:13.893Z,1041.05
2023-02-13T06:52:13.864Z,1041.05
2023-02-13T06:53:13.896Z,1041.05
2023-02-13T06:54:13.872Z,1041.06
2023-02-13T06:55:13.865Z,1041.02
2023-02-13T06:56:13.868Z,1041.05
2023-02-13T06:57:13.875Z,1041.04
2023-02-13T06:58:13.879Z,1041.04
2023-02-13T06:59:13.877Z,1041.06
2023-02-13T07:00:13.904Z,1041.07
2023-02-13T07:01:13.911Z,1041.07
2023-02-13T07:02:13.886Z,1041.08
2023-02-13T07:03:13.886Z,1041.11
2023-02-13T07:04:13.885Z,1041.09
2023-02-13T07:05:13.898Z,1041.12
2023-02-13T07:06:13.891Z,1041.11
2023-02-13T07:07:13.866Z,1041.12
2023-02-13T07:08:13.892Z,1041.12
2023-02-13T07:09:13.870Z,1041.09
2023-02-13T07:10:13.914Z,1041.12
2023-02-13T07:11:13.869Z,1041.08
2023-02-13T07:12:13.903Z,1041.1
2023-02-13T07:13:13.881Z,1041.11
2023-02-13T07:14:13.868Z,1041.1
2023-02-13T07:15:13.871Z,1041.13
2023-02-13T07:16:13.941Z,1041.1
2023-02-13T07:17:13.865Z,1041.12
2023-02-13T07:18:13.887Z,1041.09
2023-02-13T07:19:13.871Z,1041.08
2023-02-13T07:20:13.878Z,1041.11
2023-02-13T07:21:13.890Z,1041.14
2023-02-13T07:22:13.873Z,1041.14
2023-02-13T07:23:13.881Z,1041.14
2023-02-13T07:24:13.867Z,1041.11
2023-02-13T07:25:13.865Z,1041.18
2023-02-13T07:26:13.866Z,1041.15
2023-02-13T07:27:13.871Z,1041.18
2023-02-13T07:28:13.989Z,1041.17
2023-02-13T07:29:13.865Z,1041.17
2023-02-13T07:30:13.882Z,1041.13
2023-02-13T07:31:13.964Z,1041.12
2023-02-13T07:32:13.864Z,1041.12
2023-02-13T07:33:13.891Z,1041.11
2023-02-13T07:34:13.868Z,1041.11
2023-02-13T07:35:13.869Z,1041.1
2023-02-13T07:36:13.897Z,1041.14
2023-02-13T07:37:13.865Z,1041.14
2023-02-13T07:38:13.881Z,1041.09
2023-02-13T07:39:13.876Z,1041.12
2023-02-13T07:40:13.894Z,1041.13
2023-02-13T07:41:13.878Z,1041.12
2023-02-13T07:42:13.878Z,1041.15
2023-02-13T07:43:13.892Z,1041.15
2023-02-13T07:44:13.868Z,1041.13
2023-02-13T07:45:13.880Z,1041.16
2023-02-13T07:46:13.874Z,1041.15
2023-02-13T07:47:13.884Z,1041.14
2023-02-13T07:48:13.897Z,1041.14
2023-02-13T07:49:13.877Z,1041.11
2023-02-13T07:50:13.873Z,1041.14
2023-02-13T07:51:13.925Z,1041.13
2023-02-13T07:52:13.875Z,1041.14
2023-02-13T07:53:13.884Z,1041.14
2023-02-13T07:54:13.873Z,1041.14
2023-02-13T07:55:13.892Z,1041.17
2023-02-13T07:56:13.870Z,1041.14
2023-02-13T07:57:13.874Z,1041.22
2023-02-13T07:58:13.897Z,1041.16
2023-02-13T07:59:13.874Z,1041.22
2023-02-13T08:00:13.886Z,1041.2
2023-02-13T08:01:13.874Z,1041.21
2023-02-13T08:02:14.023Z,1041.25
2023-02-13T08:03:13.891Z,1041.2
2023-02-13T08:04:13.968Z,1041.25
2023-02-13T08:05:13.873Z,1041.21
2023-02-13T08:06:13.891Z,1041.27
2023-02-13T08:07:13.879Z,1041.28
2023-02-13T08:08:13.891Z,1041.28
2023-02-13T08:09:13.870Z,1041.34
2023-02-13T08:10:13.896Z,1041.33
2023-02-13T08:11:13.870Z,1041.3
2023-02-13T08:12:13.875Z,1041.3
2023-02-13T08:13:13.892Z,1041.32
2023-02-13T08:14:13.869Z,1041.31
2023-02-13T08:15:13.873Z,1041.3
2023-02-13T08:16:13.953Z,1041.32
2023-02-13T08:17:13.869Z,1041.29
2023-02-13T08:18:13.891Z,1041.31
2023-02-13T08:19:13.881Z,1041.3
2023-02-13T08:20:13.883Z,1041.3
2023-02-13T08:21:13.886Z,1041.26
2023-02-13T08:22:13.876Z,1041.28
2023-02-13T08:23:13.919Z,1041.29
2023-02-13T08:24:13.882Z,1041.32
2023-02-13T08:25:13.875Z,1041.31
2023-02-13T08:26:13.867Z,1041.29
2023-02-13T08:27:13.882Z,1041.28
2023-02-13T08:28:13.955Z,1041.31
2023-02-13T08:29:13.870Z,1041.29
2023-02-13T08:30:13.883Z,1041.25
2023-02-13T08:31:13.899Z,1041.27
2023-02-13T08:32:13.888Z,1041.22
2023-02-13T08:33:13.888Z,1041.3
2023-02-13T08:34:13.870Z,1041.29
2023-02-13T08:35:13.869Z,1041.28
2023-02-13T08:36:13.891Z,1041.28
2023-02-13T08:37:13.870Z,1041.29
2023-02-13T08:38:13.881Z,1041.28
2023-02-13T08:39:13.865Z,1041.3
2023-02-13T08:40:13.880Z,1041.26
2023-02-13T08:41:13.869Z,1041.27
2023-02-13T08:42:15.992Z,1041.25
2023-02-13T08:43:13.877Z,1041.22
2023-02-13T08:44:13.865Z,1041.27
2023-02-13T08:45:13.871Z,1041.25
2023-02-13T08:46:13.959Z,1041.25
2023-02-13T08:47:13.871Z,1041.22
2023-02-13T08:48:13.883Z,1041.22
2023-02-13T08:49:13.872Z,1041.24
2023-02-13T08:50:13.878Z,1041.24
2023-02-13T08:51:13.881Z,1041.21
2023-02-13T08:52:13.868Z,1041.18
2023-02-13T08:53:13.890Z,1041.18
2023-02-13T08:54:13.869Z,1041.26
2023-02-13T08:55:13.863Z,1041.22
2023-02-13T08:56:13.870Z,1041.22
2023-02-13T08:57:13.868Z,1041.28
2023-02-13T08:58:13.877Z,1041.3
2023-02-13T08:59:13.863Z,1041.31
2023-02-13T09:00:13.892Z,1041.35
2023-02-13T09:01:13.894Z,1041.31
2023-02-13T09:02:13.870Z,1041.35
2023-02-13T09:03:13.930Z,1041.35
2023-02-13T09:04:13.867Z,1041.33
2023-02-13T09:05:13.865Z,1041.35
2023-02-13T09:06:13.968Z,1041.35
2023-02-13T09:07:13.909Z,1041.29
2023-02-13T09:08:13.904Z,1041.29
2023-02-13T09:09:13.877Z,1041.38
2023-02-13T09:10:13.882Z,1041.36
2023-02-13T09:11:13.869Z,1041.39
2023-02-13T09:12:13.874Z,1041.39
2023-02-13T09:13:13.871Z,1041.4
2023-02-13T09:14:13.868Z,1041.39
2023-02-13T09:15:13.878Z,1041.38
2023-02-13T09:16:13.873Z,1041.41
2023-02-13T09:17:13.870Z,1041.38
2023-02-13T09:18:13.887Z,1041.38
2023-02-13T09:19:13.882Z,1041.42
2023-02-13T09:20:13.923Z,1041.45
2023-02-13T09:21:13.890Z,1041.38
2023-02-13T09:22:13.866Z,1041.42
2023-02-13T09:23:13.885Z,1041.41
2023-02-13T09:24:13.893Z,1041.45
2023-02-13T09:25:13.874Z,1041.43
2023-02-13T09:26:13.870Z,1041.48
2023-02-13T09:27:13.875Z,1041.47
2023-02-13T09:28:13.910Z,1041.5
2023-02-13T09:29:13.879Z,1041.5
2023-02-13T09:30:13.881Z,1041.48
2023-02-13T09:31:13.958Z,1041.53
2023-02-13T09:32:13.958Z,1041.5
2023-02-13T09:33:13.894Z,1041.52
2023-02-13T09:34:13.876Z,1041.53
2023-02-13T09:35:13.871Z,1041.5
2023-02-13T09:36:13.896Z,1041.52
2023-02-13T09:37:13.876Z,1041.53
2023-02-13T09:38:13.898Z,1041.55
2023-02-13T09:39:13.876Z,1041.53
2023-02-13T09:40:13.886Z,1041.57
2023-02-13T09:41:15.358Z,1041.61
2023-02-13T09:42:13.872Z,1041.62
2023-02-13T09:43:13.892Z,1041.61
2023-02-13T09:44:13.873Z,1041.61
2023-02-13T09:45:13.965Z,1041.61
2023-02-13T09:46:13.946Z,1041.58
2023-02-13T09:47:13.875Z,1041.59
2023-02-13T09:48:13.891Z,1041.62
2023-02-13T09:49:13.875Z,1041.62
2023-02-13T09:50:13.880Z,1041.64
2023-02-13T09:51:13.894Z,1041.61
2023-02-13T09:52:13.875Z,1041.63
2023-02-13T09:53:13.894Z,1041.64
2023-02-13T09:54:13.871Z,1041.65
2023-02-13T09:55:13.869Z,1041.7
2023-02-13T09:56:13.877Z,1041.67
2023-02-13T09:57:13.872Z,1041.65
2023-02-13T09:58:13.885Z,1041.61
2023-02-13T09:59:13.886Z,1041.66
2023-02-13T10:00:13.902Z,1041.61
2023-02-13T10:01:13.927Z,1041.63
2023-02-13T10:02:13.876Z,1041.64
2023-02-13T10:03:13.890Z,1041.61
2023-02-13T10:04:13.876Z,1041.61
2023-02-13T10:05:13.923Z,1041.59
2023-02-13T10:06:13.890Z,1041.63
2023-02-13T10:07:13.871Z,1041.6
2023-02-13T10:08:13.892Z,1041.6
2023-02-13T10:09:13.879Z,1041.6
2023-02-13T10:10:13.876Z,1041.6
2023-02-13T10:11:13.877Z,1041.6
2023-02-13T10:12:13.870Z,1041.63
2023-02-13T10:13:13.892Z,1041.59
2023-02-13T10:14:13.882Z,1041.53
2023-02-13T10:15:13.872Z,1041.58
2023-02-13T10:16:13.886Z,1041.61
2023-02-13T10:17:13.874Z,1041.58
2023-02-13T10:18:13.920Z,1041.61
2023-02-13T10:19:13.870Z,1041.6
2023-02-13T10:20:13.884Z,1041.6
2023-02-13T10:21:13.893Z,1041.57
2023-02-13T10:22:13.877Z,1041.57
2023-02-13T10:23:13.892Z,1041.6
2023-02-13T10:24:13.877Z,1041.58
2023-02-13T10:25:13.875Z,1041.56
2023-02-13T10:26:13.871Z,1041.58
2023-02-13T10:27:13.877Z,1041.57
2023-02-13T10:28:13.959Z,1041.6
2023-02-13T10:29:13.869Z,1041.54
2023-02-13T10:30:13.885Z,1041.62
2023-02-13T10:31:13.927Z,1041.59
2023-02-13T10:32:14.000Z,1041.56
2023-02-13T10:33:13.893Z,1041.57
2023-02-13T10:34:13.874Z,1041.57
2023-02-13T10:35:13.874Z,1041.6
2023-02-13T10:36:13.893Z,1041.56
2023-02-13T10:37:13.886Z,1041.52
2023-02-13T10:38:13.888Z,1041.55
2023-02-13T10:39:13.875Z,1041.54
2023-02-13T10:40:13.871Z,1041.54
2023-02-13T10:41:13.875Z,1041.56
2023-02-13T10:42:13.877Z,1041.58
2023-02-13T10:43:13.883Z,1041.54
2023-02-13T10:44:13.882Z,1041.55
2023-02-13T10:45:13.870Z,1041.55
2023-02-13T10:46:13.915Z,1041.56
2023-02-13T10:47:13.878Z,1041.52
2023-02-13T10:48:13.892Z,1041.54
2023-02-13T10:49:13.869Z,1041.5
2023-02-13T10:50:13.888Z,1041.5
2023-02-13T10:51:13.889Z,1041.47
2023-02-13T10:52:13.871Z,1041.48
2023-02-13T10:53:13.909Z,1041.48
2023-02-13T10:54:13.880Z,1041.47
2023-02-13T10:55:13.869Z,1041.5
2023-02-13T10:56:13.875Z,1041.49
2023-02-13T10:57:13.906Z,1041.49
2023-02-13T10:58:13.889Z,1041.51
2023-02-13T10:59:13.889Z,1041.45
2023-02-13T11:00:13.888Z,1041.42
2023-02-13T11:01:13.901Z,1041.43
2023-02-13T11:02:13.876Z,1041.42
2023-02-13T11:03:13.894Z,1041.4
2023-02-13T11:04:13.923Z,1041.41
2023-02-13T11:05:13.915Z,1041.38
2023-02-13T11:06:13.897Z,1041.4
2023-02-13T11:07:13.867Z,1041.34
2023-02-13T11:08:13.883Z,1041.34
2023-02-13T11:09:13.877Z,1041.37
2023-02-13T11:10:13.879Z,1041.38
2023-02-13T11:11:13.866Z,1041.36
2023-02-13T11:12:13.869Z,1041.37
2023-02-13T11:13:13.891Z,1041.37
2023-02-13T11:14:13.867Z,1041.32
2023-02-13T11:15:13.867Z,1041.37
2023-02-13T11:16:13.990Z,1041.36
2023-02-13T11:17:13.864Z,1041.32
2023-02-13T11:18:13.884Z,1041.32
2023-02-13T11:19:13.870Z,1041.34
2023-02-13T11:20:13.938Z,1041.37
2023-02-13T11:21:13.885Z,1041.33
2023-02-13T11:22:13.890Z,1041.33
2023-02-13T11:23:13.878Z,1041.31
2023-02-13T11:24:13.870Z,1041.34
2023-02-13T11:25:13.870Z,1041.28
2023-02-13T11:26:13.866Z,1041.29
2023-02-13T11:27:14.038Z,1041.32
2023-02-13T11:28:13.925Z,1041.3
2023-02-13T11:29:13.868Z,1041.32
2023-02-13T11:30:13.867Z,1041.31
2023-02-13T11:31:13.945Z,1041.3
2023-02-13T11:32:13.958Z,1041.24
2023-02-13T11:33:13.883Z,1041.21
2023-02-13T11:34:13.875Z,1041.21
2023-02-13T11:35:13.863Z,1041.17
2023-02-13T11:36:13.880Z,1041.18
2023-02-13T11:37:13.884Z,1041.18
2023-02-13T11:38:13.881Z,1041.17
2023-02-13T11:39:13.862Z,1041.2
2023-02-13T11:40:13.880Z,1041.19
2023-02-13T11:41:13.868Z,1041.15
2023-02-13T11:42:13.866Z,1041.18
2023-02-13T11:43:13.892Z,1041.16
2023-02-13T11:44:13.868Z,1041.17
2023-02-13T11:45:13.862Z,1041.18
2023-02-13T11:46:15.912Z,1041.17
2023-02-13T11:47:13.867Z,1041.17
2023-02-13T11:48:13.878Z,1041.14
2023-02-13T11:49:13.872Z,1041.1
2023-02-13T11:50:13.908Z,1041.1
2023-02-13T11:51:13.935Z,1041.11
2023-02-13T11:52:13.869Z,1041.1
2023-02-13T11:53:13.883Z,1041.11
2023-02-13T11:54:13.865Z,1041.09
2023-02-13T11:55:13.863Z,1041.06
2023-02-13T11:56:13.874Z,1041.1
2023-02-13T11:57:13.866Z,1041.08
2023-02-13T11:58:13.913Z,1041.11
2023-02-13T11:59:13.865Z,1041.08
2023-02-13T12:00:13.878Z,1041.08
2023-02-13T12:01:13.868Z,1041.06
2023-02-13T12:02:13.965Z,1041.03
2023-02-13T12:03:14.037Z,1041.04
2023-02-13T12:04:13.887Z,1041.03
2023-02-13T12:05:13.884Z,1041.04
2023-02-13T12:06:13.904Z,1041.02
2023-02-13T12:07:13.872Z,1041.04
2023-02-13T12:08:13.886Z,1041.04